Time;durP1;ratioP1;P1;durP2;ratioP2;P2;SDS_P1;SDS_P2;PMS_P1;PMS_P2;Temp;Humidity;BMP_temperature;BMP_pressure;BME280_temperature;BME280_humidity;BME280_pressure;Samples;Min_cycle;Max_cycle;Signal;HPM_P1;HPM_P2
2022/09/13 00:01:47;;;;;;;15.98;14.38;;;;;;;17.89;76.16;100918.13;5028930;28;20465;-85
2022/09/13 00:04:12;;;;;;;14.68;13.27;;;;;;;17.90;76.66;100917.13;5027064;28;20033;-87
2022/09/13 00:06:38;;;;;;;15.00;13.60;;;;;;;17.84;77.16;100917.00;5027472;28;20515;-87
2022/09/13 00:09:03;;;;;;;15.50;13.90;;;;;;;17.86;77.73;100936.81;5028007;28;20027;-87
2022/09/13 00:11:30;;;;;;;15.07;13.57;;;;;;;17.81;78.47;100920.75;5029519;28;20033;-86
2022/09/13 00:13:56;;;;;;;15.15;13.85;;;;;;;17.91;77.66;100928.44;5026894;28;20024;-87
2022/09/13 00:16:24;;;;;;;13.98;12.68;;;;;;;17.93;76.50;100929.91;5028822;28;20079;-86
2022/09/13 00:18:52;;;;;;;13.68;12.35;;;;;;;18.00;76.21;100930.03;5025608;28;20523;-85
2022/09/13 00:21:18;;;;;;;14.23;12.77;;;;;;;17.85;76.54;100914.19;5024130;28;20022;-87
2022/09/13 00:23:45;;;;;;;14.20;12.13;;;;;;;17.90;75.03;100906.63;5014198;28;20109;-86
2022/09/13 00:26:14;;;;;;;13.27;11.98;;;;;;;17.94;75.36;100910.53;5017862;28;20033;-87
2022/09/13 00:28:40;;;;;;;12.70;11.43;;;;;;;18.03;74.73;100912.16;5025329;28;20085;-87
2022/09/13 00:31:07;;;;;;;13.02;11.70;;;;;;;18.11;74.25;100899.97;5015971;28;20029;-87
2022/09/13 00:33:33;;;;;;;12.40;11.18;;;;;;;18.07;74.29;100896.88;5026575;28;20552;-87
2022/09/13 00:36:03;;;;;;;12.93;11.63;;;;;;;18.01;74.11;100880.00;5028170;28;20100;-88
2022/09/13 00:38:28;;;;;;;12.90;11.55;;;;;;;18.01;73.80;100872.13;5022200;28;20040;-87
2022/09/13 00:40:54;;;;;;;12.88;11.63;;;;;;;18.12;73.48;100893.72;5027375;28;20393;-87
2022/09/13 00:43:38;;;;;;;12.88;11.57;;;;;;;17.93;73.23;100869.53;5028360;28;20068;-86
2022/09/13 00:46:05;;;;;;;12.85;11.45;;;;;;;18.08;72.99;100876.69;5026077;28;20041;-86
2022/09/13 00:48:33;;;;;;;12.75;11.50;;;;;;;18.00;73.17;100870.47;5029474;28;20053;-87
2022/09/13 00:51:01;;;;;;;13.38;12.07;;;;;;;17.89;73.25;100846.44;5027758;28;20144;-87
2022/09/13 00:53:35;;;;;;;12.97;11.73;;;;;;;17.93;73.07;100853.78;5028389;28;20377;-87
2022/09/13 00:56:10;;;;;;;14.50;12.43;;;;;;;18.02;73.56;100868.53;5027829;28;20029;-87
2022/09/13 00:58:43;;;;;;;13.75;12.35;;;;;;;17.83;73.42;100842.69;5024292;28;20029;-86
2022/09/13 01:01:12;;;;;;;13.48;12.18;;;;;;;17.87;73.79;100853.66;5025116;28;20066;-87
2022/09/13 01:03:39;;;;;;;13.85;12.05;;;;;;;17.86;73.90;100863.34;5026247;28;20044;-87
2022/09/13 01:06:19;;;;;;;13.98;12.57;;;;;;;17.97;74.35;100886.59;5027611;28;20063;-88
2022/09/13 01:08:51;;;;;;;14.25;12.30;;;;;;;17.69;74.55;100841.59;5018158;28;20186;-87
2022/09/13 01:12:05;;;;;;;13.48;12.18;;;;;;;17.96;75.61;100884.13;5030361;28;20053;-83
2022/09/13 01:14:41;;;;;;;13.98;12.50;;;;;;;17.64;76.61;100856.22;5030468;28;20076;-83
2022/09/13 01:17:12;;;;;;;14.23;12.73;;;;;;;17.84;76.75;100891.56;5029001;28;20128;-83
2022/09/13 01:19:47;;;;;;;13.35;11.95;;;;;;;17.72;76.61;100850.94;5028764;28;20120;-84
2022/09/13 01:22:28;;;;;;;13.40;12.18;;;;;;;17.86;76.95;100886.97;5028873;28;20448;-83
2022/09/13 01:24:59;;;;;;;13.45;12.27;;;;;;;17.91;76.14;100886.47;5029035;28;20151;-82
2022/09/13 01:27:50;;;;;;;13.73;12.35;;;;;;;17.83;75.88;100878.59;5029482;28;20029;-83
2022/09/13 01:30:27;;;;;;;12.95;11.75;;;;;;;17.84;75.67;100875.84;5020474;28;20025;-83
2022/09/13 01:33:17;;;;;;;14.60;13.10;;;;;;;17.87;75.68;100880.72;5027096;28;20014;-83
2022/09/13 01:36:01;;;;;;;13.80;12.45;;;;;;;17.87;75.42;100872.84;5027523;28;20284;-83
2022/09/13 01:38:45;;;;;;;13.40;12.10;;;;;;;17.78;75.04;100866.84;5027542;28;20044;-82
2022/09/13 01:41:37;;;;;;;14.43;12.98;;;;;;;17.83;75.81;100884.66;5027532;28;20021;-83
2022/09/13 01:44:21;;;;;;;14.38;12.85;;;;;;;17.60;76.19;100857.53;5026669;28;20029;-83
2022/09/13 01:47:30;;;;;;;14.25;12.85;;;;;;;17.78;76.10;100889.63;5025994;28;20045;-82
2022/09/13 01:50:31;;;;;;;14.15;12.85;;;;;;;17.81;76.08;100886.66;5025638;28;20041;-83
2022/09/13 01:53:23;;;;;;;14.02;12.68;;;;;;;17.64;75.30;100866.69;5025280;28;20071;-82
2022/09/13 01:56:19;;;;;;;13.95;12.55;;;;;;;17.80;75.22;100885.03;5019780;28;20481;-83
2022/09/13 01:58:57;;;;;;;13.77;12.52;;;;;;;17.63;75.75;100858.00;5020535;28;20033;-83
2022/09/13 02:01:30;;;;;;;13.02;11.77;;;;;;;17.76;75.37;100874.03;5027334;28;20076;-82
2022/09/13 02:04:14;;;;;;;13.90;12.48;;;;;;;17.51;75.64;100839.22;5015181;28;20025;-83
2022/09/13 02:06:45;;;;;;;13.60;12.23;;;;;;;17.62;75.39;100855.56;5024976;28;20071;-83
2022/09/13 02:09:31;;;;;;;14.73;13.20;;;;;;;17.51;76.12;100849.69;5034242;23;20049;-83
2022/09/13 02:12:05;;;;;;;13.75;12.45;;;;;;;17.68;76.03;100865.38;5039812;28;20013;-83
2022/09/13 02:14:36;;;;;;;13.60;12.20;;;;;;;17.55;76.09;100833.59;5025693;28;20480;-83
2022/09/13 02:17:06;;;;;;;13.52;12.23;;;;;;;17.51;76.83;100849.69;5019639;28;20022;-83
2022/09/13 02:19:46;;;;;;;13.55;12.30;;;;;;;17.64;76.29;100837.84;5022047;28;20051;-83
2022/09/13 02:22:22;;;;;;;15.90;12.90;;;;;;;17.56;77.26;100851.00;5015928;28;20495;-84
2022/09/13 02:24:54;;;;;;;14.35;12.95;;;;;;;17.38;77.90;100822.41;5025208;28;20056;-83
2022/09/13 02:27:26;;;;;;;15.07;13.57;;;;;;;17.23;78.76;100825.69;5026222;28;20108;-82
2022/09/13 02:29:56;;;;;;;15.13;13.50;;;;;;;17.24;78.51;100823.91;5024613;28;20124;-83
2022/09/13 02:32:29;;;;;;;14.38;13.07;;;;;;;17.39;78.58;100856.31;5025277;28;20438;-83
2022/09/13 02:35:05;;;;;;;14.65;13.25;;;;;;;17.41;79.30;100862.19;5024967;28;20057;-83
2022/09/13 02:37:34;;;;;;;14.95;13.50;;;;;;;17.45;79.41;100875.78;5024826;28;20029;-83
2022/09/13 02:40:09;;;;;;;15.15;13.75;;;;;;;17.41;80.07;100871.84;5029043;28;20033;-83
2022/09/13 02:42:53;;;;;;;15.48;13.90;;;;;;;17.42;79.58;100857.75;5030764;28;20453;-84
2022/09/13 02:45:24;;;;;;;14.63;13.30;;;;;;;17.32;79.82;100850.09;5030697;28;20071;-83
2022/09/13 02:48:03;;;;;;;15.65;14.15;;;;;;;17.49;79.34;100872.66;5029726;28;20029;-83
2022/09/13 02:51:17;;;;;;;14.38;13.00;;;;;;;17.60;78.48;100881.13;5017550;28;20029;-83
2022/09/13 02:53:58;;;;;;;17.27;12.90;;;;;;;17.27;79.43;100862.06;4948903;28;20023;-83
2022/09/13 02:56:40;;;;;;;15.32;13.73;;;;;;;17.32;80.13;100860.59;4951717;29;20446;-86
2022/09/13 02:59:15;;;;;;;15.40;13.90;;;;;;;17.29;81.16;100860.91;4950014;29;20035;-86
2022/09/13 03:01:46;;;;;;;15.68;14.07;;;;;;;17.31;81.55;100874.66;4946058;29;20035;-86
2022/09/13 03:04:11;;;;;;;16.05;14.55;;;;;;;17.26;81.57;100866.47;4949784;29;20078;-86
2022/09/13 03:06:39;;;;;;;15.70;14.20;;;;;;;17.33;81.40;100888.44;4948390;29;20430;-87
2022/09/13 03:09:05;;;;;;;16.23;14.63;;;;;;;17.27;81.39;100883.88;4961195;28;20511;-87
2022/09/13 03:11:57;;;;;;;15.77;14.27;;;;;;;17.38;80.94;100894.00;4948782;29;20075;-87
2022/09/13 03:14:59;;;;;;;14.95;13.55;;;;;;;17.36;81.37;100888.09;4933187;29;20447;-85
2022/09/13 03:17:42;;;;;;;16.33;14.77;;;;;;;17.34;81.08;100884.81;4940358;29;20047;-87
2022/09/13 03:20:10;;;;;;;16.25;14.68;;;;;;;17.29;81.81;100892.38;4946857;28;20110;-86
2022/09/13 03:22:52;;;;;;;14.93;13.57;;;;;;;17.17;82.65;100867.50;4922902;29;20565;-87
2022/09/13 03:25:42;;;;;;;16.27;14.75;;;;;;;17.27;82.48;100878.63;5022664;28;20041;-87
2022/09/13 03:28:33;;;;;;;15.93;14.52;;;;;;;17.22;82.72;100886.97;5029500;28;20052;-86
2022/09/13 03:31:24;;;;;;;16.15;14.63;;;;;;;17.24;81.99;100889.44;5014834;28;20041;-86
2022/09/13 03:33:52;;;;;;;16.08;14.57;;;;;;;17.23;82.34;100882.56;4983310;28;20101;-83
2022/09/13 03:36:32;;;;;;;16.55;15.05;;;;;;;17.07;81.96;100851.13;5020405;28;20493;-83
2022/09/13 03:39:23;;;;;;;17.23;15.63;;;;;;;17.23;81.71;100887.78;5023636;28;20033;-83
2022/09/13 03:41:55;;;;;;;16.52;14.93;;;;;;;16.97;82.35;100857.38;5018057;28;20165;-83
2022/09/13 03:44:23;;;;;;;16.95;15.25;;;;;;;17.13;82.39;100887.16;5020731;28;20076;-84
2022/09/13 03:46:55;;;;;;;16.80;15.30;;;;;;;17.16;82.15;100876.34;5012190;28;20026;-83
2022/09/13 03:49:24;;;;;;;17.85;15.50;;;;;;;17.06;82.62;100865.22;5008848;28;20030;-83
2022/09/13 03:51:51;;;;;;;17.30;15.68;;;;;;;17.03;82.50;100876.03;4996512;28;20365;-83
2022/09/13 03:54:21;;;;;;;17.17;15.43;;;;;;;17.01;82.26;100878.00;4997140;28;20124;-85
2022/09/13 03:57:10;;;;;;;17.25;15.65;;;;;;;17.10;82.60;100892.75;5006455;28;20594;-84
2022/09/13 03:59:38;;;;;;;17.60;15.98;;;;;;;17.03;82.50;100886.50;5010587;28;20030;-83
2022/09/13 04:02:04;;;;;;;17.60;16.00;;;;;;;16.97;82.64;100873.09;5005305;28;20080;-84
2022/09/13 04:04:31;;;;;;;17.70;15.90;;;;;;;16.96;82.75;100875.88;5015605;28;20072;-83
2022/09/13 04:06:57;;;;;;;17.25;15.70;;;;;;;16.93;83.54;100869.19;5005220;28;20048;-83
2022/09/13 04:09:23;;;;;;;17.90;16.30;;;;;;;16.86;83.59;100868.22;4992340;28;20533;-84
2022/09/13 04:11:48;;;;;;;17.85;16.25;;;;;;;16.90;84.14;100874.72;4994802;28;20112;-83
2022/09/13 04:14:15;;;;;;;17.88;16.20;;;;;;;17.02;83.74;100884.88;4989692;28;20045;-84
2022/09/13 04:16:40;;;;;;;17.17;15.57;;;;;;;16.84;83.60;100861.47;4993520;28;20030;-84
2022/09/13 04:19:06;;;;;;;17.52;15.82;;;;;;;16.87;84.52;100864.59;4990467;28;20041;-84
2022/09/13 04:21:31;;;;;;;18.33;16.73;;;;;;;17.04;83.94;100894.22;5003645;28;20044;-84
2022/09/13 04:23:57;;;;;;;18.15;16.48;;;;;;;17.08;82.97;100905.16;5002274;28;20014;-84
2022/09/13 04:26:22;;;;;;;18.40;16.75;;;;;;;16.92;83.27;100885.06;4993689;28;20183;-86
2022/09/13 04:28:51;;;;;;;17.73;16.02;;;;;;;17.06;83.75;100909.78;5007021;28;20052;-84
2022/09/13 04:31:17;;;;;;;16.73;15.23;;;;;;;17.03;83.09;100889.13;5011923;28;20252;-83
2022/09/13 04:33:42;;;;;;;18.67;16.85;;;;;;;17.04;84.51;100903.88;5008459;28;20030;-84
2022/09/13 04:36:10;;;;;;;17.83;16.30;;;;;;;16.97;83.07;100878.34;5010849;28;20113;-83
2022/09/13 04:38:36;;;;;;;17.92;16.33;;;;;;;17.08;83.11;100894.69;5006535;28;20034;-84
2022/09/13 04:41:02;;;;;;;18.40;16.63;;;;;;;17.19;83.15;100912.69;5009057;28;20038;-84
2022/09/13 04:43:28;;;;;;;18.42;16.73;;;;;;;17.11;83.49;100907.47;5006947;28;20026;-83
2022/09/13 04:45:54;;;;;;;17.88;16.25;;;;;;;17.22;82.43;100904.50;5008353;28;20061;-83
2022/09/13 04:48:19;;;;;;;19.10;17.35;;;;;;;17.16;82.14;100894.69;5009680;28;20458;-83
2022/09/13 04:50:45;;;;;;;18.75;17.05;;;;;;;17.13;82.11;100897.63;5015367;28;20041;-83
2022/09/13 04:53:11;;;;;;;18.60;16.77;;;;;;;17.08;82.43;100913.03;5025526;28;20087;-83
2022/09/13 04:55:36;;;;;;;17.70;16.02;;;;;;;16.90;82.57;100871.28;5006779;28;20481;-83
2022/09/13 04:58:02;;;;;;;18.10;16.30;;;;;;;16.90;82.57;100873.91;4997752;28;20136;-84
2022/09/13 05:00:28;;;;;;;19.20;17.30;;;;;;;16.93;83.21;100892.75;5004864;28;20116;-83
2022/09/13 05:02:55;;;;;;;19.13;17.25;;;;;;;16.89;83.16;100880.13;5008566;28;20128;-84
2022/09/13 05:05:21;;;;;;;18.67;16.90;;;;;;;17.03;82.94;100907.47;5023309;28;20022;-80
2022/09/13 05:07:49;;;;;;;17.50;15.90;;;;;;;16.87;82.99;100888.19;5008720;28;20033;-82
2022/09/13 05:10:15;;;;;;;18.20;16.50;;;;;;;16.90;83.62;100893.06;5002385;28;20481;-83
2022/09/13 05:12:40;;;;;;;18.60;16.83;;;;;;;16.93;83.66;100903.22;4992925;28;20033;-84
2022/09/13 05:15:06;;;;;;;17.90;16.30;;;;;;;16.85;82.90;100889.31;5003552;28;20516;-84
2022/09/13 05:17:32;;;;;;;18.27;16.58;;;;;;;16.83;84.12;100897.34;4991931;28;20442;-83
2022/09/13 05:19:57;;;;;;;18.38;16.67;;;;;;;16.89;84.96;100920.25;4989210;28;20085;-83
2022/09/13 05:22:22;;;;;;;18.70;17.10;;;;;;;16.86;84.21;100910.13;4994281;28;20532;-83
2022/09/13 05:24:48;;;;;;;17.60;15.90;;;;;;;16.81;84.17;100904.56;4994762;28;20480;-83
2022/09/13 05:27:13;;;;;;;19.27;17.38;;;;;;;16.74;84.96;100898.31;5014097;28;20069;-84
2022/09/13 05:29:38;;;;;;;19.08;17.17;;;;;;;16.84;84.07;100898.97;5002137;28;20022;-83
2022/09/13 05:32:04;;;;;;;18.73;16.95;;;;;;;16.78;84.36;100894.38;4989452;28;20069;-83
2022/09/13 05:34:29;;;;;;;18.60;16.70;;;;;;;16.86;84.28;100897.03;4998948;28;20588;-83
2022/09/13 05:36:54;;;;;;;18.90;17.20;;;;;;;16.79;83.74;100890.78;5001010;28;20366;-83
2022/09/13 05:39:21;;;;;;;18.80;17.02;;;;;;;16.91;83.46;100912.22;5008421;28;20382;-84
2022/09/13 05:41:47;;;;;;;19.33;17.33;;;;;;;16.77;84.04;100892.75;5008903;28;20084;-85
2022/09/13 05:44:13;;;;;;;19.42;17.63;;;;;;;16.86;83.82;100912.75;5000243;28;20026;-83
2022/09/13 05:46:38;;;;;;;19.80;18.08;;;;;;;16.76;83.79;100900.78;5001959;28;20027;-83
2022/09/13 05:49:04;;;;;;;19.75;17.90;;;;;;;16.79;83.82;100906.50;4997983;28;20355;-84
2022/09/13 05:51:29;;;;;;;19.30;17.50;;;;;;;16.73;84.53;100904.53;4989717;28;20084;-83
2022/09/13 05:53:56;;;;;;;20.05;18.25;;;;;;;16.90;84.63;100929.75;4987735;28;20022;-83
2022/09/13 05:56:24;;;;;;;19.98;18.08;;;;;;;16.78;85.12;100915.34;5004046;28;20030;-83
2022/09/13 05:58:51;;;;;;;19.73;17.93;;;;;;;16.90;85.36;100924.50;4989531;28;20133;-84
2022/09/13 06:01:19;;;;;;;20.17;18.40;;;;;;;16.97;85.21;100936.00;5002271;28;20401;-83
2022/09/13 06:03:53;;;;;;;20.88;18.77;;;;;;;16.85;86.25;100920.75;4986378;28;20073;-83
2022/09/13 06:06:20;;;;;;;21.15;19.05;;;;;;;16.95;85.75;100927.47;4989849;28;20084;-84
2022/09/13 06:08:45;;;;;;;20.30;18.50;;;;;;;17.02;85.64;100932.84;4997099;28;20053;-85
2022/09/13 06:11:13;;;;;;;22.05;19.95;;;;;;;16.93;86.78;100937.28;5005329;28;20528;-83
2022/09/13 06:13:39;;;;;;;22.17;20.17;;;;;;;17.05;86.23;100942.22;4991997;28;20072;-83
2022/09/13 06:16:08;;;;;;;21.98;19.73;;;;;;;17.06;86.21;100949.06;5000285;28;20029;-83
2022/09/13 06:18:34;;;;;;;;;;;;;;;17.27;85.08;100941.53;5007673;28;20033;-83
2022/09/13 06:21:03;;;;;;;22.20;20.10;;;;;;;17.13;85.89;100939.56;5003478;28;20008;-83
2022/09/13 06:23:29;;;;;;;22.40;20.27;;;;;;;17.07;85.92;100920.09;5002188;28;20048;-84
2022/09/13 06:26:08;;;;;;;22.63;20.60;;;;;;;17.16;86.89;100934.00;4994988;28;20026;-83
2022/09/13 06:28:35;;;;;;;23.45;21.05;;;;;;;17.24;86.47;100941.84;5020740;28;20037;-84
2022/09/13 06:31:02;;;;;;;22.05;20.08;;;;;;;17.12;86.17;100922.22;5010719;28;20372;-83
2022/09/13 06:33:27;;;;;;;24.33;22.02;;;;;;;17.26;86.51;100939.88;4999651;28;20640;-83
2022/09/13 06:35:52;;;;;;;23.75;21.65;;;;;;;17.14;86.60;100930.72;4989224;28;20022;-83
2022/09/13 06:38:18;;;;;;;23.60;21.45;;;;;;;17.13;86.25;100913.34;5010399;28;20022;-83
2022/09/13 06:40:43;;;;;;;23.92;21.63;;;;;;;17.32;87.14;100934.00;5008891;28;20124;-83
2022/09/13 06:43:09;;;;;;;24.08;21.88;;;;;;;17.21;87.05;100916.00;5002149;28;20026;-83
2022/09/13 06:45:34;;;;;;;23.52;21.45;;;;;;;17.16;87.52;100913.84;4998884;28;20033;-83
2022/09/13 06:47:59;;;;;;;23.45;21.25;;;;;;;17.37;86.76;100936.91;5003462;28;20026;-83
2022/09/13 06:50:25;;;;;;;23.95;21.63;;;;;;;17.33;87.77;100917.28;5000866;28;20125;-83
2022/09/13 06:52:50;;;;;;;24.63;22.30;;;;;;;17.46;87.68;100930.69;5001710;28;20025;-83
2022/09/13 06:55:16;;;;;;;24.70;22.42;;;;;;;17.46;87.50;100925.44;4990666;28;20032;-83
2022/09/13 06:57:41;;;;;;;25.00;22.73;;;;;;;17.49;87.37;100912.00;5002407;28;20018;-83
2022/09/13 07:00:08;;;;;;;25.25;22.88;;;;;;;17.52;87.81;100914.28;5000607;28;20018;-83
2022/09/13 07:02:33;;;;;;;26.23;23.80;;;;;;;17.56;87.33;100906.06;5000363;28;20448;-84
2022/09/13 07:04:58;;;;;;;26.73;24.15;;;;;;;17.54;87.32;100895.72;5005778;28;20757;-83
2022/09/13 07:07:24;;;;;;;27.73;25.02;;;;;;;17.70;87.83;100907.97;4987495;28;20054;-86
2022/09/13 07:09:49;;;;;;;28.95;26.05;;;;;;;17.72;86.94;100913.91;4988529;28;20050;-86
2022/09/13 07:12:17;;;;;;;29.15;26.45;;;;;;;17.92;86.98;100928.25;4994445;28;20058;-87
2022/09/13 07:14:42;;;;;;;30.10;27.30;;;;;;;17.90;86.21;100922.38;5002120;28;20120;-87
2022/09/13 07:17:07;;;;;;;30.65;27.70;;;;;;;17.96;86.61;100926.13;4988135;28;20474;-86
2022/09/13 07:19:33;;;;;;;30.95;28.05;;;;;;;17.93;86.66;100922.03;4990909;28;20042;-86
2022/09/13 07:21:59;;;;;;;29.92;27.20;;;;;;;17.93;86.60;100916.78;4992013;28;20085;-86
2022/09/13 07:24:24;;;;;;;34.03;30.83;;;;;;;17.95;86.41;100920.06;4992342;28;20022;-87
2022/09/13 07:26:50;;;;;;;35.97;32.47;;;;;;;18.07;86.78;100943.31;5019702;28;20033;-86
2022/09/13 07:29:22;;;;;;;36.47;33.08;;;;;;;18.19;86.66;100952.44;5013488;28;20140;-87
2022/09/13 07:31:50;;;;;;;37.13;33.72;;;;;;;18.22;86.17;100947.63;5008721;28;20108;-87
2022/09/13 07:34:19;;;;;;;39.22;35.53;;;;;;;18.28;86.67;100935.63;5010612;28;20083;-86
2022/09/13 07:36:45;;;;;;;39.53;35.83;;;;;;;18.26;86.50;100932.38;5004481;28;20076;-86
2022/09/13 07:39:15;;;;;;;38.63;34.83;;;;;;;18.31;86.75;100920.34;5011026;28;20057;-86
2022/09/13 07:41:41;;;;;;;39.10;35.53;;;;;;;18.48;87.40;100947.34;5015110;28;20033;-87
2022/09/13 07:44:06;;;;;;;39.15;35.33;;;;;;;18.57;87.01;100946.28;4988070;28;20034;-86
2022/09/13 07:46:40;;;;;;;39.78;36.08;;;;;;;18.62;86.70;100947.56;5006229;28;20037;-86
2022/09/13 07:49:06;;;;;;;40.15;36.28;;;;;;;18.58;85.87;100937.44;5006171;28;20044;-85
2022/09/13 07:51:39;;;;;;;40.85;36.85;;;;;;;18.66;86.32;100938.38;5008686;28;20045;-86
2022/09/13 07:54:16;;;;;;;40.05;35.85;;;;;;;18.64;86.03;100935.06;5018488;28;20087;-86
2022/09/13 07:56:42;;;;;;;38.00;34.38;;;;;;;18.86;86.14;100955.31;5013678;28;20116;-86
2022/09/13 07:59:16;;;;;;;37.53;33.63;;;;;;;18.93;85.52;100956.25;5016022;28;20049;-87
2022/09/13 08:01:50;;;;;;;35.50;32.08;;;;;;;18.86;85.26;100936.91;5002672;28;20025;-87
2022/09/13 08:04:20;;;;;;;35.30;31.92;;;;;;;19.07;85.43;100958.09;5012468;28;20085;-87
2022/09/13 08:06:45;;;;;;;34.75;31.40;;;;;;;19.02;86.17;100934.16;5009477;28;20453;-87
2022/09/13 08:09:11;;;;;;;35.40;31.90;;;;;;;19.06;86.54;100940.69;5009734;28;20058;-82
2022/09/13 08:11:39;;;;;;;34.50;31.20;;;;;;;19.23;85.51;100956.34;5006437;28;20492;-82
2022/09/13 08:14:13;;;;;;;34.15;30.85;;;;;;;19.08;85.99;100917.66;4999428;28;20500;-86
2022/09/13 08:16:39;;;;;;;32.17;28.98;;;;;;;19.29;85.64;100937.22;5002497;28;20472;-82
2022/09/13 08:19:06;;;;;;;32.55;29.42;;;;;;;19.32;85.20;100934.19;5012918;28;20377;-83
2022/09/13 08:21:37;;;;;;;31.92;28.80;;;;;;;19.34;85.05;100953.28;5010645;28;20040;-83
2022/09/13 08:24:04;;;;;;;28.45;25.50;;;;;;;19.51;84.94;100973.16;5017278;28;20593;-83
2022/09/13 08:26:43;;;;;;;26.90;24.08;;;;;;;19.48;84.90;100959.53;5015498;28;20076;-82
2022/09/13 08:29:10;;;;;;;25.00;22.70;;;;;;;19.56;85.27;100967.34;5015564;28;20026;-87
2022/09/13 08:31:36;;;;;;;22.30;20.10;;;;;;;19.65;86.23;100954.94;5009372;28;20026;-82
2022/09/13 08:34:02;;;;;;;18.27;16.38;;;;;;;19.84;85.51;100970.19;5019415;28;20044;-83
2022/09/13 08:36:28;;;;;;;13.80;12.30;;;;;;;19.83;84.24;100966.72;5008364;28;20466;-82
2022/09/13 08:39:00;;;;;;;13.77;12.30;;;;;;;19.71;83.49;100941.06;4992130;28;20034;-82
2022/09/13 08:41:47;;;;;;;14.43;13.02;;;;;;;19.95;84.23;100969.72;4992367;28;20034;-82
2022/09/13 08:44:37;;;;;;;13.95;12.55;;;;;;;20.00;83.61;100964.72;4989732;28;20034;-83
2022/09/13 08:47:31;;;;;;;16.23;14.55;;;;;;;19.98;83.28;100961.47;5004754;28;20487;-82
2022/09/13 08:50:11;;;;;;;16.77;15.10;;;;;;;20.09;83.18;100962.81;5007250;28;20351;-82
2022/09/13 08:52:46;;;;;;;15.95;14.43;;;;;;;20.27;82.84;100980.88;5009825;28;20632;-82
2022/09/13 08:55:24;;;;;;;15.05;13.45;;;;;;;20.30;81.88;100975.22;5011167;28;20449;-83
2022/09/13 08:58:06;;;;;;;15.63;13.55;;;;;;;20.24;82.26;100965.41;5004077;28;20026;-83
2022/09/13 09:00:43;;;;;;;15.25;13.75;;;;;;;20.37;81.86;100986.66;4992612;28;20034;-83
2022/09/13 09:03:25;;;;;;;14.98;13.30;;;;;;;20.46;81.67;100988.19;4995606;28;20072;-82
2022/09/13 09:05:51;;;;;;;14.82;13.00;;;;;;;20.53;81.90;100981.19;5000177;28;20038;-84
2022/09/13 09:08:32;;;;;;;14.50;13.00;;;;;;;20.59;81.19;100980.44;4991616;28;20136;-82
2022/09/13 09:11:09;;;;;;;15.15;13.65;;;;;;;20.55;81.19;100984.47;4988285;28;20453;-88
2022/09/13 09:13:52;;;;;;;16.08;14.48;;;;;;;20.58;81.23;100983.25;4990922;28;20458;-82
2022/09/13 09:16:46;;;;;;;14.98;13.40;;;;;;;20.76;81.70;100981.03;4990560;28;20033;-83
2022/09/13 09:19:27;;;;;;;18.20;16.15;;;;;;;20.69;81.00;100967.75;4988021;28;20085;-83
2022/09/13 09:21:52;;;;;;;18.10;16.30;;;;;;;20.63;80.85;100955.34;4991235;28;20026;-86
2022/09/13 09:24:21;;;;;;;19.30;17.38;;;;;;;20.85;81.26;100984.34;5002479;28;20535;-87
2022/09/13 09:26:47;;;;;;;21.23;19.17;;;;;;;20.74;81.56;100972.47;5006646;28;20476;-82
2022/09/13 09:29:24;;;;;;;20.27;18.15;;;;;;;20.85;82.35;100982.50;4994442;28;20069;-83
2022/09/13 09:32:09;;;;;;;20.63;18.52;;;;;;;20.89;82.30;100985.59;5005369;28;20410;-82
2022/09/13 09:34:52;;;;;;;21.98;19.80;;;;;;;20.82;82.15;100982.09;4996193;28;20038;-83
2022/09/13 09:37:24;;;;;;;20.95;18.98;;;;;;;20.92;82.10;100977.31;5005445;28;20084;-82
2022/09/13 09:39:52;;;;;;;21.05;18.85;;;;;;;20.97;81.12;100982.00;4998397;28;20057;-83
2022/09/13 09:42:25;;;;;;;22.75;20.35;;;;;;;20.76;81.60;100964.38;5006215;28;20057;-83
2022/09/13 09:44:56;;;;;;;22.27;20.05;;;;;;;20.84;81.93;100980.06;5000429;28;20065;-83
2022/09/13 09:47:24;;;;;;;23.92;21.42;;;;;;;20.66;81.51;100948.88;4995973;28;20030;-83
2022/09/13 09:50:21;;;;;;;22.73;20.52;;;;;;;20.78;82.41;100968.47;5004983;28;20136;-83
2022/09/13 09:53:13;;;;;;;22.48;20.30;;;;;;;20.82;82.04;100959.19;5008546;28;20109;-82
2022/09/13 09:55:45;;;;;;;22.38;20.17;;;;;;;20.79;82.17;100958.72;4994238;28;20381;-82
2022/09/13 09:58:15;;;;;;;21.70;19.60;;;;;;;20.89;82.67;100943.41;5004819;28;20029;-82
2022/09/13 10:00:52;;;;;;;14.00;12.07;;;;;;;20.89;78.96;100960.06;4990195;28;20030;-83
2022/09/13 10:03:27;;;;;;;13.48;12.05;;;;;;;20.95;80.13;100963.75;4996278;28;20030;-86
2022/09/13 10:06:17;;;;;;;13.68;12.00;;;;;;;21.10;79.21;100961.84;4991806;28;20049;-88
2022/09/13 10:08:54;;;;;;;12.07;10.18;;;;;;;21.18;77.67;100974.91;5013332;28;20039;-87
2022/09/13 10:11:26;;;;;;;10.82;9.73;;;;;;;21.24;77.95;100956.69;4999178;28;20026;-83
2022/09/13 10:14:02;;;;;;;8.85;7.55;;;;;;;21.26;76.95;100959.94;5002102;28;20022;-82
2022/09/13 10:16:29;;;;;;;11.82;9.82;;;;;;;21.24;76.63;100962.75;4993608;28;20038;-88
2022/09/13 10:19:21;;;;;;;11.90;10.38;;;;;;;21.32;77.95;100959.19;4994292;28;20273;-82
2022/09/13 10:21:59;;;;;;;11.90;10.77;;;;;;;21.34;76.96;100958.00;5003963;28;20017;-87
2022/09/13 10:24:27;;;;;;;12.00;10.70;;;;;;;21.28;76.16;100936.81;4994176;28;20174;-87
2022/09/13 10:26:52;;;;;;;11.10;9.88;;;;;;;21.52;76.13;100957.50;4998893;28;20077;-87
2022/09/13 10:29:18;;;;;;;11.90;10.65;;;;;;;21.49;75.34;100934.13;4995983;28;20034;-88
2022/09/13 10:31:47;;;;;;;12.27;10.60;;;;;;;21.84;75.71;100953.41;4997100;28;20036;-82
2022/09/13 10:34:45;;;;;;;;;;;;;;;21.93;75.56;100956.72;4996797;28;20073;-82
2022/09/13 10:37:23;;;;;;;11.70;10.35;;;;;;;21.79;76.19;100928.59;4989607;28;19913;-82
2022/09/13 10:40:00;;;;;;;11.60;10.40;;;;;;;21.88;75.73;100959.94;4996775;28;20037;-82
2022/09/13 10:42:50;;;;;;;12.35;11.00;;;;;;;21.83;76.09;100935.94;4998576;28;20116;-83
2022/09/13 10:45:23;;;;;;;12.25;11.05;;;;;;;21.82;75.00;100941.44;5003491;28;20474;-82
2022/09/13 10:47:53;;;;;;;10.68;9.57;;;;;;;21.82;74.94;100950.16;4998440;28;20589;-83
2022/09/13 10:50:27;;;;;;;11.65;8.63;;;;;;;21.88;74.99;100938.00;5002496;28;20405;-82
2022/09/13 10:53:01;;;;;;;9.70;8.10;;;;;;;21.79;75.27;100931.25;4993628;28;20390;-82
2022/09/13 10:55:32;;;;;;;11.30;9.93;;;;;;;21.99;72.92;100948.00;5000566;28;20122;-88
2022/09/13 10:58:00;;;;;;;11.23;10.07;;;;;;;21.90;72.97;100946.53;5018695;28;20372;-87
2022/09/13 11:00:54;;;;;;;10.60;9.50;;;;;;;21.94;74.29;100942.50;4991812;28;20026;-88
2022/09/13 11:03:43;;;;;;;10.93;9.13;;;;;;;21.85;74.68;100944.50;5009960;28;20049;-88
2022/09/13 11:06:14;;;;;;;7.65;6.38;;;;;;;21.83;73.55;100948.31;4994527;28;20018;-88
2022/09/13 11:09:07;;;;;;;7.63;5.40;;;;;;;21.88;73.64;100949.38;5006177;28;20050;-87
2022/09/13 11:11:47;;;;;;;7.30;5.70;;;;;;;21.84;73.03;100942.84;5006413;28;20275;-87
2022/09/13 11:14:34;;;;;;;6.90;5.10;;;;;;;22.03;73.72;100946.59;4996552;28;20030;-83
2022/09/13 11:17:18;;;;;;;6.13;3.97;;;;;;;21.99;72.98;100929.50;5006978;28;20061;-83
2022/09/13 11:19:43;;;;;;;6.53;3.83;;;;;;;21.95;71.37;100934.34;4992702;28;20037;-83
2022/09/13 11:22:20;;;;;;;5.55;4.18;;;;;;;21.92;71.61;100949.81;5003722;28;20030;-87
2022/09/13 11:25:05;;;;;;;7.13;4.07;;;;;;;21.96;72.35;100940.47;4995743;28;20491;-86
2022/09/13 11:27:55;;;;;;;5.97;3.38;;;;;;;22.05;73.29;100939.28;4999320;28;20106;-86
2022/09/13 11:30:23;;;;;;;5.43;3.20;;;;;;;22.11;73.97;100922.66;5008817;28;20038;-82
2022/09/13 11:33:08;;;;;;;6.03;3.90;;;;;;;22.07;72.39;100910.84;5023033;28;20097;-82
2022/09/13 11:36:01;;;;;;;3.97;2.75;;;;;;;22.13;72.40;100925.91;4995867;28;20081;-82
2022/09/13 11:38:48;;;;;;;6.28;2.95;;;;;;;22.13;71.70;100928.56;5003933;28;20037;-82